Time;durP1;ratioP1;P1;durP2;ratioP2;P2;SDS_P1;SDS_P2;PMS_P1;PMS_P2;Temp;Humidity;BMP_temperature;BMP_pressure;BME280_temperature;BME280_humidity;BME280_pressure;Samples;Min_cycle;Max_cycle;Signal;HPM_P1;HPM_P2
2022/10/05 00:00:20;;;;;;;2.63;1.15;;;;;;;19.56;47.37;101718.44;16131237;19;130946;-60
2022/10/05 00:05:44;;;;;;;2.22;1.13;;;;;;;19.55;47.34;101714.84;16130528;19;130850;-60
2022/10/05 00:11:07;;;;;;;1.40;1.00;;;;;;;19.55;47.66;101716.75;16127254;19;129762;-60
2022/10/05 00:16:29;;;;;;;1.50;0.93;;;;;;;19.52;47.62;101707.81;16133032;19;129449;-60
2022/10/05 00:21:51;;;;;;;1.30;0.80;;;;;;;19.51;47.15;101703.34;16129275;19;130149;-60
2022/10/05 00:27:19;;;;;;;1.08;0.85;;;;;;;19.51;47.62;101692.22;16126759;19;135594;-60
2022/10/05 00:32:43;;;;;;;1.60;0.90;;;;;;;19.51;47.33;101702.50;16129220;19;129433;-60
2022/10/05 00:38:05;;;;;;;1.65;1.00;;;;;;;19.50;47.12;101700.81;16127828;19;130398;-60
2022/10/05 00:43:32;;;;;;;1.50;0.85;;;;;;;19.50;47.49;101700.81;16125725;19;129961;-60
2022/10/05 00:49:06;;;;;;;1.13;0.80;;;;;;;19.50;47.10;101689.69;16128056;19;129772;-60
2022/10/05 00:54:27;;;;;;;1.15;0.73;;;;;;;19.47;47.17;101692.94;16127098;19;129747;-60
2022/10/05 00:59:52;;;;;;;1.60;0.80;;;;;;;19.47;47.51;101690.16;16127644;19;129741;-60
2022/10/05 01:05:29;;;;;;;1.10;0.80;;;;;;;19.47;47.34;101690.16;16128696;19;129826;-60
2022/10/05 01:11:19;;;;;;;1.05;0.95;;;;;;;19.46;47.14;101694.00;16127545;19;129101;-60
2022/10/05 01:16:55;;;;;;;1.20;0.90;;;;;;;19.46;47.28;101680.13;16131006;19;129217;-63
2022/10/05 01:22:39;;;;;;;1.10;0.80;;;;;;;19.44;47.13;101685.94;16126504;19;129531;-60
2022/10/05 01:28:21;;;;;;;0.95;0.63;;;;;;;19.43;47.09;101666.75;16126059;19;130064;-61
2022/10/05 01:34:01;;;;;;;0.82;0.60;;;;;;;19.44;47.29;101665.69;16126437;19;129640;-64
2022/10/05 01:39:28;;;;;;;0.85;0.68;;;;;;;19.42;47.17;101659.50;16124422;19;130982;-64
2022/10/05 01:44:53;;;;;;;1.02;0.68;;;;;;;19.40;47.58;101664.44;16123638;19;130330;-69
2022/10/05 01:51:00;;;;;;;1.20;0.90;;;;;;;19.41;47.23;101652.25;16123452;19;130085;-63
2022/10/05 01:56:40;;;;;;;1.07;0.80;;;;;;;19.40;47.13;101645.00;16125097;19;129879;-63
2022/10/05 02:02:09;;;;;;;1.00;0.73;;;;;;;19.39;47.55;101633.06;16125250;19;129991;-62
2022/10/05 02:07:43;;;;;;;3.20;1.00;;;;;;;19.39;47.23;101633.06;16123573;19;130135;-60
2022/10/05 02:13:20;;;;;;;1.17;0.80;;;;;;;19.39;47.08;101621.94;16123629;19;130099;-60
2022/10/05 02:19:19;;;;;;;1.50;0.80;;;;;;;19.37;47.49;101622.19;16124472;19;129138;-59
2022/10/05 02:24:50;;;;;;;1.15;0.70;;;;;;;19.36;47.34;101620.50;16128235;19;129396;-60
2022/10/05 02:30:15;;;;;;;0.60;0.60;;;;;;;19.35;47.40;101593.84;16120652;19;130069;-60
2022/10/05 02:35:37;;;;;;;1.03;0.63;;;;;;;19.35;47.35;101595.78;16119084;19;129262;-60
2022/10/05 02:41:11;;;;;;;1.00;0.70;;;;;;;19.34;47.41;101586.59;16119012;19;129885;-60
2022/10/05 02:47:01;;;;;;;1.58;0.68;;;;;;;19.35;47.23;101587.47;16119359;19;131005;-60
2022/10/05 02:52:42;;;;;;;2.85;0.98;;;;;;;19.33;47.46;101579.34;16117927;19;129355;-60
2022/10/05 02:58:12;;;;;;;0.73;0.60;;;;;;;19.32;47.21;101579.59;16118940;19;129751;-60
2022/10/05 03:03:42;;;;;;;0.73;0.60;;;;;;;19.32;47.54;101583.19;16117614;19;130342;-60
2022/10/05 03:09:08;;;;;;;1.35;0.80;;;;;;;19.32;47.16;101577.66;16116687;19;129374;-60
2022/10/05 03:14:39;;;;;;;1.35;0.80;;;;;;;19.33;47.56;101578.50;16119062;19;129016;-60
2022/10/05 03:20:16;;;;;;;1.05;0.80;;;;;;;19.32;47.28;101577.66;16117863;19;130352;-60
2022/10/05 03:25:49;;;;;;;0.60;0.60;;;;;;;19.32;47.14;101571.28;16116973;19;132622;-60
2022/10/05 03:31:18;;;;;;;0.80;0.50;;;;;;;19.31;47.31;101578.75;16116307;19;129489;-60
2022/10/05 03:36:53;;;;;;;0.95;0.65;;;;;;;19.30;47.23;101574.28;16114839;19;129461;-60
2022/10/05 03:42:44;;;;;;;1.90;0.60;;;;;;;19.30;47.53;101574.28;16116618;19;129716;-60
2022/10/05 03:48:13;;;;;;;0.57;0.50;;;;;;;19.28;47.37;101558.94;16126253;19;129358;-60
2022/10/05 03:53:47;;;;;;;0.82;0.57;;;;;;;19.28;47.55;101557.03;16130614;19;129576;-60
2022/10/05 03:59:17;;;;;;;1.15;0.75;;;;;;;19.29;47.41;101563.41;16133293;19;129230;-60
2022/10/05 04:04:45;;;;;;;1.15;0.80;;;;;;;19.27;47.60;101552.56;16128983;19;130378;-60
2022/10/05 04:10:15;;;;;;;0.60;0.60;;;;;;;19.28;47.46;101565.34;16132700;19;131944;-60
2022/10/05 04:15:43;;;;;;;1.10;0.70;;;;;;;19.27;47.41;101562.78;16132140;19;129819;-60
2022/10/05 04:21:16;;;;;;;0.98;0.73;;;;;;;19.27;47.38;101558.13;16131237;19;129163;-60
2022/10/05 04:26:52;;;;;;;1.63;0.43;;;;;;;19.27;47.42;101565.56;16130569;19;130446;-60
2022/10/05 04:32:22;;;;;;;0.82;0.68;;;;;;;19.25;47.14;101553.88;16127288;19;129918;-60
2022/10/05 04:38:21;;;;;;;2.03;0.80;;;;;;;19.24;47.49;101547.47;16127962;19;129210;-60
2022/10/05 04:44:01;;;;;;;0.57;0.57;;;;;;;19.23;47.30;101540.22;16129091;19;129790;-60
2022/10/05 04:49:43;;;;;;;0.93;0.52;;;;;;;19.23;47.41;101540.22;16130912;19;129500;-60
2022/10/05 04:55:30;;;;;;;0.98;0.50;;;;;;;19.22;47.56;101544.94;16128728;19;129650;-60
2022/10/05 05:01:10;;;;;;;0.77;0.50;;;;;;;19.22;47.52;101530.22;16127434;19;129408;-60
2022/10/05 05:06:44;;;;;;;0.65;0.50;;;;;;;19.17;47.26;101524.53;16126341;19;129844;-60
2022/10/05 05:12:14;;;;;;;0.70;0.70;;;;;;;19.16;47.26;101514.50;16127226;19;129786;-60
2022/10/05 05:18:05;;;;;;;0.65;0.60;;;;;;;19.20;47.51;101512.97;16126937;19;129627;-60
2022/10/05 05:23:43;;;;;;;0.77;0.75;;;;;;;19.20;47.68;101502.69;16125956;19;129384;-60
2022/10/05 05:29:36;;;;;;;0.50;0.50;;;;;;;19.22;47.65;101494.16;16124181;19;130175;-60
2022/10/05 05:35:03;;;;;;;1.20;0.50;;;;;;;19.23;47.49;101495.84;16128729;19;135304;-60
2022/10/05 05:40:37;;;;;;;0.52;0.50;;;;;;;19.24;47.17;101485.63;16125267;19;129614;-60
2022/10/05 05:46:08;;;;;;;0.73;0.60;;;;;;;19.23;47.58;101487.53;16125653;19;128899;-59
2022/10/05 05:51:38;;;;;;;2.90;0.57;;;;;;;19.22;47.44;101475.59;16124219;19;129706;-60
2022/10/05 05:57:11;;;;;;;4.72;0.80;;;;;;;19.23;47.23;101484.75;16124509;19;129513;-60
2022/10/05 06:02:42;;;;;;;4.45;0.85;;;;;;;19.24;47.49;101480.91;16123911;19;129800;-61
2022/10/05 06:08:26;;;;;;;5.07;0.90;;;;;;;19.26;47.18;101487.06;16119440;19;129808;-60
2022/10/05 06:13:50;;;;;;;4.20;0.80;;;;;;;19.22;47.49;101486.69;16122404;19;129526;-60
2022/10/05 06:19:16;;;;;;;1.52;0.60;;;;;;;19.24;47.59;101496.72;16117592;19;129832;-60
2022/10/05 06:24:51;;;;;;;2.97;0.70;;;;;;;19.25;47.54;101502.00;16118717;19;130940;-60
2022/10/05 06:30:15;;;;;;;2.50;0.70;;;;;;;19.24;47.43;101502.25;16120891;19;129808;-61
2022/10/05 06:35:37;;;;;;;3.55;0.68;;;;;;;19.22;47.51;101488.59;16123723;19;129361;-60
2022/10/05 06:41:08;;;;;;;3.70;0.70;;;;;;;19.21;47.31;101492.47;16122052;19;129595;-59
2022/10/05 06:46:35;;;;;;;1.58;0.77;;;;;;;19.20;47.50;101491.59;16123660;19;129314;-59
2022/10/05 06:52:37;;;;;;;2.53;0.80;;;;;;;19.19;47.55;101491.84;16122441;19;129786;-58
2022/10/05 06:58:02;;;;;;;2.70;0.80;;;;;;;19.19;47.30;101491.84;16110326;19;129471;-60
2022/10/05 07:03:39;;;;;;;2.55;1.35;;;;;;;19.20;47.19;101485.22;16109470;19;131112;-60
2022/10/05 07:09:01;;;;;;;4.53;1.25;;;;;;;19.21;47.58;101492.47;16110977;19;130194;-60
2022/10/05 07:14:49;;;;;;;6.32;0.98;;;;;;;19.24;47.63;101486.44;16112138;19;131237;-58
2022/10/05 07:20:27;;;;;;;2.58;1.20;;;;;;;19.21;47.66;101485.00;16116072;19;129654;-59
2022/10/05 07:26:00;;;;;;;4.68;1.25;;;;;;;19.22;47.30;101488.59;16125350;19;130083;-58
2022/10/05 07:31:38;;;;;;;3.83;1.05;;;;;;;19.21;47.68;101487.78;16124788;19;130661;-58
2022/10/05 07:43:06;;;;;;;1.50;0.90;;;;;;;19.18;47.25;101487.38;16131120;19;129258;-58
2022/10/05 07:48:38;;;;;;;5.20;0.80;;;;;;;19.20;47.47;101479.69;16127897;19;129585;-58
2022/10/05 07:54:17;;;;;;;2.35;0.68;;;;;;;19.20;47.51;101479.69;16128502;19;129835;-58
2022/10/05 08:00:01;;;;;;;1.17;0.70;;;;;;;19.20;47.46;101482.44;16131629;19;129593;-58
2022/10/05 08:05:36;;;;;;;2.92;0.90;;;;;;;19.19;47.38;101476.03;16129465;19;131879;-58
2022/10/05 08:11:12;;;;;;;3.73;1.13;;;;;;;19.20;47.53;101488.00;16131323;19;132163;-58
2022/10/05 08:16:37;;;;;;;2.78;0.60;;;;;;;19.19;47.56;101472.44;16130489;19;129509;-58
2022/10/05 08:22:12;;;;;;;3.23;0.83;;;;;;;19.22;47.43;101477.50;16129489;19;129666;-59
2022/10/05 08:27:57;;;;;;;4.20;0.90;;;;;;;19.20;47.10;101465.81;16129837;19;129808;-58
2022/10/05 08:33:21;;;;;;;3.45;0.70;;;;;;;19.23;47.00;101468.13;16126458;19;129835;-57
2022/10/05 08:38:43;;;;;;;2.25;0.73;;;;;;;19.24;47.16;101460.66;16130190;19;129589;-57
2022/10/05 08:44:39;;;;;;;2.47;0.85;;;;;;;19.26;47.05;101464.88;16130382;19;129424;-57
2022/10/05 08:50:24;;;;;;;1.08;0.70;;;;;;;19.27;47.13;101458.25;16124535;19;129532;-58
2022/10/05 08:56:19;;;;;;;1.98;0.70;;;;;;;19.27;46.94;101461.03;16126433;19;129879;-57
2022/10/05 09:02:26;;;;;;;1.85;0.75;;;;;;;19.29;47.15;101455.22;16124745;19;129979;-58
2022/10/05 09:07:54;;;;;;;3.13;0.85;;;;;;;19.29;47.45;101444.13;16126089;19;129699;-58
2022/10/05 09:13:44;;;;;;;1.33;0.68;;;;;;;19.30;47.44;101446.69;16128501;19;129441;-57
2022/10/05 09:19:36;;;;;;;2.25;0.60;;;;;;;19.31;47.47;101451.16;16128239;19;129513;-58
2022/10/05 09:25:25;;;;;;;2.33;0.90;;;;;;;19.31;47.40;101440.06;16129761;19;130396;-57
2022/10/05 09:30:55;;;;;;;2.47;0.60;;;;;;;19.32;47.29;101438.09;16126266;19;129427;-57
2022/10/05 09:36:30;;;;;;;1.42;0.60;;;;;;;19.34;47.42;101436.78;16127460;19;129762;-58
2022/10/05 09:41:58;;;;;;;2.90;0.88;;;;;;;19.34;47.20;101438.72;16126656;19;129941;-57
2022/10/05 09:47:38;;;;;;;1.23;0.80;;;;;;;19.37;47.25;101429.94;16125168;19;129706;-58
2022/10/05 09:53:46;;;;;;;1.75;0.80;;;;;;;19.37;47.74;101425.22;16122271;19;130471;-57
2022/10/05 09:59:16;;;;;;;;;;;;;;;19.35;47.39;101421.81;16116411;19;129670;-58
2022/10/05 10:05:05;;;;;;;1.92;0.63;;;;;;;19.41;47.77;101419.19;16109880;19;129911;-58
2022/10/05 10:10:38;;;;;;;2.90;0.80;;;;;;;19.41;47.81;101408.09;16105700;19;130053;-58
2022/10/05 10:16:14;;;;;;;2.05;0.60;;;;;;;19.43;47.80;101401.22;16115499;19;130392;-58
2022/10/05 10:22:09;;;;;;;0.68;0.55;;;;;;;19.45;47.92;101393.50;16112512;19;130181;-60
2022/10/05 10:27:53;;;;;;;3.05;1.15;;;;;;;19.47;47.54;101385.78;16112224;19;129525;-58
2022/10/05 10:33:23;;;;;;;3.25;0.95;;;;;;;19.46;47.77;101386.84;16114159;19;129895;-58
2022/10/05 10:39:03;;;;;;;1.60;0.70;;;;;;;19.52;47.62;101385.03;16119855;19;129703;-58
2022/10/05 10:44:49;;;;;;;2.88;0.70;;;;;;;19.52;47.88;101376.72;16118639;19;129201;-58
2022/10/05 10:50:32;;;;;;;1.47;0.70;;;;;;;19.52;47.88;101365.63;16120547;19;130384;-58
2022/10/05 10:56:18;;;;;;;3.83;0.77;;;;;;;19.53;47.43;101368.16;16129137;19;129849;-58
2022/10/05 11:01:57;;;;;;;5.68;1.20;;;;;;;19.56;47.50;101369.63;16135020;19;129625;-56
2022/10/05 11:08:00;;;;;;;8.43;1.20;;;;;;;19.60;47.64;101358.88;16136895;19;130129;-58
2022/10/05 11:14:01;;;;;;;4.22;1.02;;;;;;;19.61;47.40;101341.13;16136542;19;129493;-58
2022/10/05 11:19:50;;;;;;;6.22;1.02;;;;;;;19.61;47.88;101328.09;16136869;19;129275;-58
2022/10/05 11:25:27;;;;;;;4.70;1.20;;;;;;;19.60;47.50;101325.56;16133520;19;129547;-58
2022/10/05 11:31:10;;;;;;;4.93;1.20;;;;;;;19.64;47.52;101321.19;16134264;19;130399;-58
2022/10/05 11:36:54;;;;;;;1.35;1.00;;;;;;;19.63;47.41;101306.47;16134095;19;129186;-58
2022/10/05 11:42:37;;;;;;;3.60;0.98;;;;;;;19.67;47.44;101307.69;16129986;19;129684;-58
2022/10/05 11:48:23;;;;;;;1.58;0.93;;;;;;;19.68;47.68;101309.38;16132535;19;130069;-59
2022/10/05 11:54:00;;;;;;;5.35;1.38;;;;;;;19.71;47.67;101309.97;16133322;19;129365;-58
2022/10/05 11:59:48;;;;;;;3.38;1.20;;;;;;;19.73;47.67;101296.69;16134976;19;129347;-58
2022/10/05 12:05:26;;;;;;;1.33;0.80;;;;;;;19.75;47.61;101287.03;16129864;19;129806;-59
2022/10/05 12:10:56;;;;;;;3.53;0.90;;;;;;;19.75;47.37;101280.63;16130380;19;132472;-58
2022/10/05 12:16:58;;;;;;;4.60;0.98;;;;;;;19.77;47.81;101278.47;16130156;19;133791;-58
2022/10/05 12:22:26;;;;;;;1.73;0.65;;;;;;;19.84;47.54;101279.16;16130193;19;129640;-58
2022/10/05 12:27:55;;;;;;;1.90;0.90;;;;;;;19.91;47.59;101267.91;16132195;19;129321;-59
2022/10/05 12:33:28;;;;;;;1.60;0.82;;;;;;;20.01;47.05;101267.31;16124500;19;129358;-58
2022/10/05 12:38:58;;;;;;;4.00;0.80;;;;;;;20.09;47.15;101269.69;16125207;19;129541;-58
2022/10/05 12:44:35;;;;;;;1.35;0.77;;;;;;;20.12;47.07;101266.41;16123140;19;129667;-58
2022/10/05 12:50:18;;;;;;;0.77;0.52;;;;;;;20.11;47.21;101268.34;16127990;19;129246;-59
2022/10/05 12:56:00;;;;;;;2.67;1.15;;;;;;;20.10;46.74;101260.25;16127676;19;129518;-59
2022/10/05 13:01:27;;;;;;;4.47;1.08;;;;;;;20.10;46.72;101260.25;16123783;19;129744;-58
2022/10/05 13:07:08;;;;;;;2.22;0.82;;;;;;;20.08;46.90;101279.09;16128925;19;129480;-58
2022/10/05 13:12:42;;;;;;;3.00;1.13;;;;;;;20.06;46.89;101270.19;16128315;19;129837;-58
2022/10/05 13:18:15;;;;;;;2.78;1.13;;;;;;;20.03;47.10;101277.06;16124145;19;129504;-59
2022/10/05 13:24:03;;;;;;;7.15;1.15;;;;;;;19.99;47.06;101282.28;16126869;19;130206;-59
2022/10/05 13:29:33;;;;;;;;;;;;;;;19.93;46.95;101299.03;16126227;19;129592;-59
2022/10/05 13:35:23;;;;;;;4.68;1.10;;;;;;;19.95;47.11;101322.69;16126227;19;129757;-59
2022/10/05 13:40:53;;;;;;;4.53;1.10;;;;;;;19.89;47.19;101320.91;16125027;19;129725;-60
2022/10/05 13:46:23;;;;;;;3.28;1.10;;;;;;;19.90;46.61;101332.84;16121265;19;129810;-58
2022/10/05 13:52:16;;;;;;;6.07;1.10;;;;;;;19.92;46.82;101353.75;16126890;19;129391;-58
2022/10/05 13:57:56;;;;;;;10.52;3.70;;;;;;;19.92;47.04;101359.31;16124738;19;130746;-58
2022/10/05 14:03:29;;;;;;;54.15;13.75;;;;;;;19.92;47.03;101375.97;16123129;19;132432;-62
2022/10/05 14:08:52;;;;;;;58.50;14.23;;;;;;;19.94;47.12;101382.09;16121271;19;129656;-59
2022/10/05 14:14:23;;;;;;;45.97;11.23;;;;;;;19.95;46.79;101386.56;16120567;19;130459;-60
2022/10/05 14:19:49;;;;;;;11.07;3.10;;;;;;;19.92;44.28;101403.75;16118988;19;129035;-59
2022/10/05 14:25:16;;;;;;;16.45;3.17;;;;;;;19.82;44.69;101397.94;16118374;19;129340;-59
2022/10/05 14:30:39;;;;;;;10.18;2.30;;;;;;;19.74;43.92;101407.50;16118559;19;129496;-58
2022/10/05 14:36:02;;;;;;;6.38;2.25;;;;;;;19.77;43.57;101408.94;16121894;19;130431;-58
2022/10/05 14:41:27;;;;;;;11.38;2.30;;;;;;;19.81;43.43;101407.38;16122794;19;129367;-58
2022/10/05 14:46:57;;;;;;;13.40;1.45;;;;;;;19.87;43.64;101406.38;16124264;19;129433;-58
2022/10/05 14:52:31;;;;;;;12.85;1.77;;;;;;;19.97;43.11;101406.59;16119787;19;129742;-58
2022/10/05 14:58:14;;;;;;;11.65;1.52;;;;;;;20.02;43.47;101397.56;16119764;19;131698;-58
2022/10/05 15:03:45;;;;;;;5.72;1.40;;;;;;;20.05;43.74;101387.94;16118769;19;129519;-58
2022/10/05 15:09:23;;;;;;;6.38;1.70;;;;;;;20.06;43.73;101393.22;16119713;19;129370;-58
2022/10/05 15:14:46;;;;;;;3.85;1.13;;;;;;;20.05;43.75;101396.25;16119962;19;129354;-57
2022/10/05 15:20:23;;;;;;;4.32;1.10;;;;;;;20.10;43.92;101379.69;16118831;19;130149;-58
2022/10/05 15:26:00;;;;;;;2.97;0.80;;;;;;;20.12;43.57;101385.84;16116402;19;129089;-56
2022/10/05 15:31:45;;;;;;;3.85;1.00;;;;;;;20.16;43.53;101392.59;16116908;19;129880;-58
2022/10/05 15:37:30;;;;;;;3.17;1.10;;;;;;;20.17;43.81;101388.75;16116845;19;129350;-58
2022/10/05 15:42:58;;;;;;;3.63;0.85;;;;;;;20.19;43.67;101394.03;16126789;19;129507;-58
2022/10/05 15:48:27;;;;;;;3.25;1.00;;;;;;;20.22;43.73;101402.72;16128582;19;129434;-58
2022/10/05 15:54:56;;;;;;;3.72;1.20;;;;;;;20.25;43.83;101407.78;16130064;19;129756;-57
2022/10/05 16:00:03;;;;;;;6.20;1.20;;;;;;;20.23;43.86;101409.16;16128145;19;130912;-57
2022/10/05 16:11:28;;;;;;;5.45;1.30;;;;;;;20.18;44.53;101407.09;16128902;19;130656;-58
2022/10/05 16:17:05;;;;;;;4.03;1.05;;;;;;;20.20;44.15;101416.00;16125873;19;130592;-57
2022/10/05 16:22:32;;;;;;;1.75;1.10;;;;;;;20.21;44.57;101414.94;16128179;19;129194;-58
2022/10/05 16:28:13;;;;;;;5.45;1.58;;;;;;;20.21;44.26;101423.25;16128191;19;130847;-57
2022/10/05 16:33:51;;;;;;;5.30;1.02;;;;;;;20.19;44.96;101439.31;16127002;19;129902;-58
2022/10/05 16:39:39;;;;;;;3.15;1.35;;;;;;;20.15;44.83;101435.38;16126792;19;130372;-58
2022/10/05 16:45:26;;;;;;;3.80;1.25;;;;;;;20.11;45.16;101434.16;16128758;19;129840;-58
2022/10/05 16:50:56;;;;;;;2.42;1.20;;;;;;;20.07;44.88;101439.34;16126358;19;129583;-58
2022/10/05 16:56:24;;;;;;;2.90;1.00;;;;;;;20.03;45.15;101451.19;16124478;19;129654;-58
2022/10/05 17:02:06;;;;;;;2.55;1.15;;;;;;;19.99;45.46;101450.81;16125294;19;129488;-57
2022/10/05 17:07:46;;;;;;;4.03;0.90;;;;;;;19.95;45.24;101447.66;16125107;19;130616;-60
2022/10/05 17:13:42;;;;;;;5.38;1.27;;;;;;;19.93;45.61;101449.00;16121994;19;129901;-59
2022/10/05 17:19:22;;;;;;;8.75;1.65;;;;;;;19.96;46.22;101451.28;16113045;19;129933;-61
2022/10/05 17:24:56;;;;;;;11.73;1.80;;;;;;;19.96;45.82;101457.69;16120358;19;130046;-61
2022/10/05 17:30:52;;;;;;;7.65;1.70;;;;;;;19.98;45.95;101469.41;16122215;19;129899;-60
2022/10/05 17:36:17;;;;;;;10.52;1.83;;;;;;;19.97;46.37;101469.66;16121117;19;130421;-59
2022/10/05 17:41:39;;;;;;;8.83;1.37;;;;;;;19.95;46.32;101480.97;16121924;19;129647;-56
2022/10/05 17:47:03;;;;;;;5.72;1.48;;;;;;;19.96;46.10;101493.78;16121646;19;129725;-58
2022/10/05 17:58:27;;;;;;;8.45;1.20;;;;;;;20.01;46.71;101500.59;16122134;19;129858;-61
2022/10/05 18:03:50;;;;;;;5.35;1.20;;;;;;;20.00;46.51;101513.63;16117053;19;129686;-57
2022/10/05 18:09:21;;;;;;;3.72;1.27;;;;;;;20.00;46.33;101524.72;16120743;19;130549;-56
2022/10/05 18:14:59;;;;;;;5.70;1.15;;;;;;;20.05;46.35;101518.47;16123397;19;130215;-63
2022/10/05 18:20:26;;;;;;;5.47;1.45;;;;;;;20.05;46.79;101524.84;16119020;19;130872;-62
2022/10/05 18:25:54;;;;;;;6.18;1.05;;;;;;;20.07;46.43;101522.69;16119546;19;129521;-61
2022/10/05 18:31:32;;;;;;;4.70;1.10;;;;;;;20.20;46.28;101515.19;16120569;19;129676;-66
2022/10/05 18:36:57;;;;;;;6.35;1.00;;;;;;;20.32;46.51;101529.06;16120986;19;129079;-64
2022/10/05 18:42:21;;;;;;;13.13;1.77;;;;;;;20.40;46.20;101531.47;16120411;19;130487;-66
2022/10/05 18:48:12;;;;;;;24.80;3.55;;;;;;;20.49;46.28;101527.22;16121500;19;130139;-67
2022/10/05 18:53:43;;;;;;;29.35;3.20;;;;;;;20.56;46.48;101541.81;16163990;19;128984;-68
2022/10/05 18:59:38;;;;;;;31.40;4.25;;;;;;;20.69;46.48;101542.66;16161701;19;131867;-64
2022/10/05 19:05:34;;;;;;;30.60;3.70;;;;;;;20.76;46.56;101551.75;16124728;19;129080;-64
2022/10/05 19:11:30;;;;;;;33.15;4.35;;;;;;;20.84;47.16;101548.56;16113213;19;129648;-59
2022/10/05 19:17:16;;;;;;;34.53;4.13;;;;;;;20.89;47.33;101554.25;16124375;19;129464;-58
2022/10/05 19:22:46;;;;;;;30.63;3.40;;;;;;;20.90;47.01;101575.41;16136279;19;129613;-68
2022/10/05 19:28:21;;;;;;;18.88;3.65;;;;;;;20.98;46.99;101593.66;16132424;19;130878;-65
2022/10/05 19:33:46;;;;;;;31.43;3.20;;;;;;;21.02;47.05;101646.84;16133678;19;129472;-61
2022/10/05 19:39:35;;;;;;;30.87;4.13;;;;;;;21.06;46.92;101651.69;16130957;19;130236;-60
2022/10/05 19:44:56;;;;;;;18.45;2.85;;;;;;;21.14;46.75;101669.06;16131947;19;129477;-62
2022/10/05 19:50:25;;;;;;;32.47;3.17;;;;;;;21.18;46.70;101684.19;16133070;19;131079;-63
2022/10/05 19:55:47;;;;;;;22.65;2.50;;;;;;;21.16;47.25;101690.03;16131792;19;129464;-70
2022/10/05 20:01:10;;;;;;;20.80;2.75;;;;;;;21.15;46.98;101707.81;16132476;19;129496;-63
2022/10/05 20:06:32;;;;;;;19.92;2.95;;;;;;;21.17;46.88;101718.69;16129493;19;129842;-65
2022/10/05 20:11:55;;;;;;;16.67;2.40;;;;;;;21.15;46.93;101727.28;16127983;19;130210;-64
2022/10/05 20:23:26;;;;;;;17.08;2.05;;;;;;;21.09;46.99;101747.72;16129237;19;131640;-62
2022/10/05 20:28:48;;;;;;;15.88;2.05;;;;;;;21.02;47.17;101758.13;16126145;19;129476;-63
2022/10/05 20:34:10;;;;;;;22.00;2.28;;;;;;;20.94;47.54;101764.03;16133323;19;129656;-64
2022/10/05 20:39:31;;;;;;;29.90;2.58;;;;;;;20.88;47.09;101771.41;16131433;19;130233;-61
2022/10/05 20:44:53;;;;;;;15.45;2.13;;;;;;;20.82;47.12;101778.78;16129599;19;129698;-62
2022/10/05 20:50:18;;;;;;;9.73;1.30;;;;;;;20.77;47.34;101813.97;16127884;19;129919;-62
2022/10/05 20:55:41;;;;;;;8.07;1.20;;;;;;;20.71;47.39;101821.31;16129267;19;129973;-62
2022/10/05 21:01:22;;;;;;;11.95;1.42;;;;;;;20.65;47.79;101827.84;16128694;19;130202;-62
2022/10/05 21:06:44;;;;;;;9.65;1.10;;;;;;;20.60;47.20;101831.34;16126915;19;128953;-62
2022/10/05 21:12:06;;;;;;;6.80;1.00;;;;;;;20.54;47.29;101849.81;16129456;19;129963;-61
2022/10/05 21:17:28;;;;;;;4.78;1.10;;;;;;;20.50;47.76;101854.13;16132126;19;129941;-62
2022/10/05 21:22:49;;;;;;;5.85;1.10;;;;;;;20.47;47.62;101860.16;16126915;19;129330;-62
2022/10/05 21:28:11;;;;;;;5.25;1.27;;;;;;;20.42;47.67;101896.16;16124511;19;130126;-62
2022/10/05 21:33:34;;;;;;;6.63;1.38;;;;;;;20.39;47.41;101925.25;16129428;19;131010;-62
2022/10/05 21:38:55;;;;;;;5.57;1.20;;;;;;;20.37;47.83;101932.16;16123949;19;129623;-61
2022/10/05 21:44:17;;;;;;;3.30;0.95;;;;;;;20.34;47.70;101938.16;16123054;19;129730;-62
2022/10/05 21:49:40;;;;;;;5.93;0.85;;;;;;;20.32;47.77;101951.44;16123602;19;130044;-62
2022/10/05 21:55:03;;;;;;;4.05;0.70;;;;;;;20.29;47.80;101947.19;16125135;19;129451;-62
2022/10/05 22:00:25;;;;;;;3.67;0.70;;;;;;;20.26;47.59;101965.19;16120179;19;129765;-61
2022/10/05 22:05:47;;;;;;;2.22;0.65;;;;;;;20.27;47.40;101977.16;16121145;19;129244;-62
2022/10/05 22:11:12;;;;;;;1.33;0.43;;;;;;;20.24;47.63;101984.03;16121007;19;129733;-62
2022/10/05 22:16:37;;;;;;;4.82;0.80;;;;;;;20.20;47.85;101993.91;16123899;19;130462;-62
2022/10/05 22:21:59;;;;;;;2.20;0.57;;;;;;;20.19;47.71;102000.53;16120584;19;129223;-62
2022/10/05 22:27:23;;;;;;;3.05;0.52;;;;;;;20.18;47.53;102012.75;16121265;19;129686;-73
2022/10/05 22:32:44;;;;;;;2.30;0.60;;;;;;;20.19;47.40;102021.91;16121077;19;129313;-71
2022/10/05 22:38:06;;;;;;;4.35;0.60;;;;;;;20.16;47.52;102028.78;16120143;19;130559;-69
2022/10/05 22:43:28;;;;;;;2.30;0.68;;;;;;;20.13;47.62;102049.53;16119113;19;130320;-69
2022/10/05 22:48:50;;;;;;;2.67;0.50;;;;;;;20.13;47.44;102059.81;16125248;19;130104;-69
2022/10/05 22:54:11;;;;;;;0.77;0.30;;;;;;;20.12;47.43;102070.06;16137521;19;130615;-61
2022/10/05 22:59:33;;;;;;;2.05;0.40;;;;;;;20.10;48.01;102077.78;16142973;19;129682;-62
2022/10/05 23:04:55;;;;;;;0.93;0.40;;;;;;;20.08;47.64;102081.84;16142049;19;129556;-62
2022/10/05 23:10:18;;;;;;;1.88;0.40;;;;;;;20.07;47.89;102091.25;16143200;19;129550;-62
2022/10/05 23:15:41;;;;;;;2.35;0.77;;;;;;;20.06;47.90;102093.22;16139064;19;129898;-61
2022/10/05 23:21:06;;;;;;;0.98;0.38;;;;;;;20.06;47.73;102109.03;16139297;19;129635;-61
2022/10/05 23:26:29;;;;;;;0.35;0.22;;;;;;;20.04;47.85;102113.97;16133969;19;129979;-62
2022/10/05 23:31:51;;;;;;;2.30;0.40;;;;;;;20.04;47.91;102127.84;16130986;19;131072;-62
2022/10/05 23:37:13;;;;;;;0.60;0.30;;;;;;;20.03;47.49;102140.88;16135843;19;131063;-61
2022/10/05 23:42:35;;;;;;;2.40;0.30;;;;;;;20.03;47.79;102142.81;16133151;19;129733;-61
2022/10/05 23:47:56;;;;;;;1.10;0.20;;;;;;;20.03;47.86;102162.25;16133656;19;129061;-61
2022/10/05 23:53:18;;;;;;;0.68;0.20;;;;;;;20.03;47.90;102173.38;16131059;19;131004;-62
2022/10/05 23:58:40;;;;;;;1.75;0.30;;;;;;;20.02;47.86;102188.34;16132768;19;129348;-62
